Time;durP1;ratioP1;P1;durP2;ratioP2;P2;SDS_P1;SDS_P2;PMS_P1;PMS_P2;Temp;Humidity;BMP_temperature;BMP_pressure;BME280_temperature;BME280_humidity;BME280_pressure;Samples;Min_cycle;Max_cycle;Signal;HPM_P1;HPM_P2
2023/03/15 00:01:17;;;;;;;5.95;1.95;;;3.80;99.90;;;;;;7599274;19;20025;-74
2023/03/15 00:03:49;;;;;;;4.45;1.52;;;3.70;99.90;;;;;;7585930;19;20187;-73
2023/03/15 00:06:21;;;;;;;5.53;1.75;;;3.70;99.90;;;;;;7599679;19;20018;-74
2023/03/15 00:08:53;;;;;;;4.90;1.77;;;3.70;99.90;;;;;;7587827;19;20029;-74
2023/03/15 00:11:25;;;;;;;3.95;2.03;;;3.70;99.90;;;;;;7597671;19;20018;-74
2023/03/15 00:13:58;;;;;;;4.05;1.70;;;3.80;99.90;;;;;;7591636;19;20022;-73
2023/03/15 00:16:31;;;;;;;2.65;1.42;;;3.70;99.90;;;;;;7583629;19;20014;-74
2023/03/15 00:19:03;;;;;;;3.85;1.75;;;3.80;99.90;;;;;;7584556;19;20913;-73
2023/03/15 00:21:36;;;;;;;3.65;1.20;;;3.90;99.90;;;;;;7594320;19;20050;-74
2023/03/15 00:24:10;;;;;;;2.60;1.27;;;4.00;99.90;;;;;;7597817;19;20980;-74
2023/03/15 00:26:42;;;;;;;2.03;1.35;;;4.10;99.90;;;;;;7604793;19;20023;-74
2023/03/15 00:29:14;;;;;;;4.40;1.40;;;4.10;99.90;;;;;;7598183;19;20032;-74
2023/03/15 00:31:46;;;;;;;1.10;0.90;;;4.10;99.90;;;;;;7590943;19;20015;-74
2023/03/15 00:34:23;;;;;;;2.60;1.63;;;4.10;99.90;;;;;;7586851;19;20610;-74
2023/03/15 00:36:56;;;;;;;1.02;0.80;;;4.00;99.90;;;;;;7595420;19;20015;-73
2023/03/15 00:39:28;;;;;;;4.40;1.80;;;4.00;99.90;;;;;;7596001;19;20108;-75
2023/03/15 00:42:00;;;;;;;3.17;1.90;;;4.00;99.90;;;;;;7595090;19;20372;-73
2023/03/15 00:44:33;;;;;;;4.80;1.98;;;3.90;99.90;;;;;;7600783;19;20019;-74
2023/03/15 00:47:05;;;;;;;5.00;3.10;;;3.90;99.90;;;;;;7561829;19;20014;-74
2023/03/15 00:49:37;;;;;;;6.15;2.10;;;3.80;99.90;;;;;;7590939;19;20015;-73
2023/03/15 00:52:11;;;;;;;;;;;3.70;99.90;;;;;;7588024;19;20045;-74
2023/03/15 00:54:53;;;;;;;3.30;2.17;;;3.70;99.90;;;;;;7599738;19;19914;-75
2023/03/15 00:57:26;;;;;;;3.45;2.20;;;3.60;99.90;;;;;;7597362;19;20037;-73
2023/03/15 00:59:58;;;;;;;4.53;2.63;;;3.50;99.90;;;;;;7582681;19;20022;-74
2023/03/15 01:02:31;;;;;;;6.22;2.53;;;3.40;99.90;;;;;;7585392;19;20011;-73
2023/03/15 01:05:05;;;;;;;8.88;2.70;;;3.30;99.90;;;;;;7587127;19;20053;-74
2023/03/15 01:07:38;;;;;;;8.05;2.72;;;3.40;99.90;;;;;;7586447;19;21036;-74
2023/03/15 01:10:12;;;;;;;8.70;2.70;;;3.40;99.90;;;;;;7595522;19;20026;-74
2023/03/15 01:12:44;;;;;;;6.53;2.35;;;3.50;99.90;;;;;;7588960;19;20028;-74
2023/03/15 01:15:16;;;;;;;6.68;2.38;;;3.40;99.90;;;;;;7595979;19;20014;-74
2023/03/15 01:17:48;;;;;;;4.25;2.33;;;3.00;99.90;;;;;;7544204;19;20018;-75
2023/03/15 01:20:21;;;;;;;4.53;1.75;;;2.70;99.90;;;;;;7587618;19;20014;-74
2023/03/15 01:22:53;;;;;;;4.95;1.70;;;2.50;99.90;;;;;;7593247;19;20010;-75
2023/03/15 01:25:25;;;;;;;2.78;1.80;;;2.40;99.90;;;;;;7609979;19;20054;-76
2023/03/15 01:27:58;;;;;;;4.03;1.90;;;2.30;99.90;;;;;;7602603;19;20053;-76
2023/03/15 01:30:30;;;;;;;2.53;1.48;;;2.20;99.90;;;;;;7603445;19;20026;-75
2023/03/15 01:33:02;;;;;;;4.88;1.75;;;2.20;99.90;;;;;;7590402;19;20060;-75
2023/03/15 01:35:34;;;;;;;2.13;1.80;;;2.20;99.90;;;;;;7598295;19;20014;-76
2023/03/15 01:38:06;;;;;;;2.30;1.60;;;2.10;99.90;;;;;;7600229;19;20705;-74
2023/03/15 01:40:44;;;;;;;3.50;1.70;;;2.00;99.90;;;;;;7606095;19;20015;-75
2023/03/15 01:43:23;;;;;;;2.72;1.65;;;2.10;99.90;;;;;;7601524;19;20022;-75
2023/03/15 01:45:58;;;;;;;4.55;2.33;;;2.10;99.90;;;;;;7603005;19;20601;-75
2023/03/15 01:48:43;;;;;;;2.38;1.40;;;2.10;99.90;;;;;;7597903;19;20010;-76
2023/03/15 01:51:25;;;;;;;8.80;4.63;;;2.10;99.90;;;;;;7602418;19;20015;-76
2023/03/15 01:54:15;;;;;;;2.67;1.50;;;2.00;99.90;;;;;;7599963;19;20034;-74
2023/03/15 01:57:04;;;;;;;2.72;1.60;;;2.00;99.90;;;;;;7604507;19;20025;-75
2023/03/15 02:00:01;;;;;;;2.30;1.80;;;2.00;99.90;;;;;;7596802;19;20028;-75
2023/03/15 02:02:51;;;;;;;2.97;1.90;;;2.10;99.90;;;;;;7591709;19;20011;-74
2023/03/15 02:05:32;;;;;;;3.45;2.03;;;2.20;99.90;;;;;;7615676;19;20637;-75
2023/03/15 02:08:08;;;;;;;2.55;2.15;;;2.20;99.90;;;;;;7607199;19;20019;-75
2023/03/15 02:10:46;;;;;;;4.40;1.80;;;2.20;99.90;;;;;;7603962;19;20145;-75
2023/03/15 02:13:22;;;;;;;3.50;1.98;;;2.10;99.90;;;;;;7597555;19;20090;-75
2023/03/15 02:15:56;;;;;;;5.22;2.17;;;2.00;99.90;;;;;;7602498;19;20025;-75
2023/03/15 02:18:36;;;;;;;3.85;2.70;;;2.00;99.90;;;;;;7610270;19;20015;-75
2023/03/15 02:21:21;;;;;;;2.42;1.80;;;2.00;99.90;;;;;;7612473;19;20031;-75
2023/03/15 02:24:24;;;;;;;2.92;1.77;;;2.10;99.90;;;;;;7612613;19;20484;-75
2023/03/15 02:26:57;;;;;;;3.97;2.15;;;2.10;99.90;;;;;;7609078;19;20018;-74
2023/03/15 02:29:29;;;;;;;3.30;2.13;;;2.00;99.90;;;;;;7612969;19;20015;-76
2023/03/15 02:32:03;;;;;;;4.05;2.63;;;2.00;99.90;;;;;;7624785;19;20046;-75
2023/03/15 02:34:35;;;;;;;3.80;2.38;;;2.10;99.90;;;;;;7622451;19;20006;-75
2023/03/15 02:37:08;;;;;;;3.90;2.35;;;2.20;99.90;;;;;;7623154;19;20019;-75
2023/03/15 02:39:40;;;;;;;3.83;2.20;;;2.20;99.90;;;;;;7622567;19;20030;-76
2023/03/15 02:42:12;;;;;;;3.83;2.25;;;2.20;99.90;;;;;;7617684;19;20018;-74
2023/03/15 02:44:47;;;;;;;4.10;2.50;;;2.20;99.90;;;;;;7621734;19;20019;-75
2023/03/15 02:47:31;;;;;;;4.65;2.25;;;2.20;99.90;;;;;;7612919;19;20021;-75
2023/03/15 02:50:06;;;;;;;4.95;2.85;;;2.20;99.90;;;;;;7617411;19;20094;-75
2023/03/15 02:52:39;;;;;;;3.80;2.70;;;2.20;99.90;;;;;;7609704;19;20019;-76
2023/03/15 02:55:11;;;;;;;3.70;2.60;;;2.10;99.90;;;;;;7609786;19;20014;-76
2023/03/15 02:57:43;;;;;;;6.13;3.38;;;2.10;99.90;;;;;;7606426;19;20766;-76
2023/03/15 03:00:16;;;;;;;5.57;3.33;;;2.00;99.90;;;;;;7609781;19;20014;-74
2023/03/15 03:02:48;;;;;;;4.97;2.92;;;2.10;99.90;;;;;;7603853;19;20018;-75
2023/03/15 03:05:21;;;;;;;6.40;4.00;;;2.10;99.90;;;;;;7609875;19;20026;-76
2023/03/15 03:07:53;;;;;;;5.78;3.03;;;2.10;99.90;;;;;;7608504;19;20026;-75
2023/03/15 03:10:26;;;;;;;5.68;3.92;;;2.10;99.90;;;;;;7610218;19;20014;-75
2023/03/15 03:13:01;;;;;;;5.25;3.53;;;2.10;99.90;;;;;;7596431;19;20634;-75
2023/03/15 03:15:37;;;;;;;6.22;3.80;;;2.10;99.90;;;;;;7594954;19;20404;-75
2023/03/15 03:18:09;;;;;;;5.90;2.90;;;2.10;99.90;;;;;;7591045;19;20023;-75
2023/03/15 03:20:44;;;;;;;10.02;3.97;;;2.00;99.90;;;;;;7607774;19;20510;-75
2023/03/15 03:23:17;;;;;;;4.65;2.97;;;2.10;99.90;;;;;;7594828;19;20029;-75
2023/03/15 03:25:49;;;;;;;6.90;3.27;;;1.90;99.90;;;;;;7608030;19;20368;-75
2023/03/15 03:28:26;;;;;;;4.85;3.10;;;1.90;99.90;;;;;;7598316;19;20089;-75
2023/03/15 03:30:59;;;;;;;8.43;3.38;;;1.90;99.90;;;;;;7606378;19;20023;-74
2023/03/15 03:33:32;;;;;;;14.55;4.07;;;1.90;99.90;;;;;;7597157;19;20024;-76
2023/03/15 03:36:05;;;;;;;7.90;3.42;;;1.90;99.90;;;;;;7591116;19;20523;-75
2023/03/15 03:38:42;;;;;;;16.57;5.87;;;1.80;99.90;;;;;;7599260;19;20028;-75
2023/03/15 03:41:14;;;;;;;9.35;3.75;;;1.80;99.90;;;;;;7602549;19;20018;-76
2023/03/15 03:43:47;;;;;;;5.70;3.15;;;1.80;99.90;;;;;;7587422;19;20026;-74
2023/03/15 03:46:22;;;;;;;6.50;3.72;;;1.80;99.90;;;;;;7585869;19;20101;-75
2023/03/15 03:48:57;;;;;;;7.93;3.55;;;1.70;99.90;;;;;;7591093;19;20021;-76
2023/03/15 03:51:32;;;;;;;8.43;3.03;;;1.80;99.90;;;;;;7587913;19;20046;-75
2023/03/15 03:54:05;;;;;;;7.35;3.15;;;1.80;99.90;;;;;;7595623;19;20106;-77
2023/03/15 03:56:38;;;;;;;11.25;4.18;;;1.70;99.90;;;;;;7604154;19;20022;-74
2023/03/15 03:59:10;;;;;;;7.43;3.05;;;1.70;99.90;;;;;;7601335;19;20022;-76
2023/03/15 04:01:53;;;;;;;6.60;3.28;;;1.70;99.90;;;;;;7593553;19;20018;-74
2023/03/15 04:04:25;;;;;;;6.75;3.60;;;1.70;99.90;;;;;;7603525;19;20021;-75
2023/03/15 04:06:58;;;;;;;11.57;4.05;;;1.60;99.90;;;;;;7602438;19;21066;-74
2023/03/15 04:09:36;;;;;;;11.02;4.30;;;1.60;99.90;;;;;;7596489;19;20044;-74
2023/03/15 04:12:09;;;;;;;;;;;1.60;99.90;;;;;;7597659;19;20960;-75
2023/03/15 04:14:44;;;;;;;5.47;3.72;;;1.60;99.90;;;;;;7590592;19;19921;-74
2023/03/15 04:17:18;;;;;;;8.88;4.00;;;1.50;99.90;;;;;;7570139;19;20006;-75
2023/03/15 04:19:50;;;;;;;9.10;4.43;;;1.60;99.90;;;;;;7585954;19;20018;-74
2023/03/15 04:22:28;;;;;;;10.48;3.95;;;1.50;99.90;;;;;;7583387;19;20278;-75
2023/03/15 04:25:01;;;;;;;6.28;3.50;;;1.60;99.90;;;;;;7603817;19;20032;-76
2023/03/15 04:27:57;;;;;;;8.55;3.63;;;1.60;99.90;;;;;;7598378;19;20011;-75
2023/03/15 04:30:50;;;;;;;7.43;4.35;;;1.50;99.90;;;;;;7606618;19;20046;-75
2023/03/15 04:33:36;;;;;;;8.70;4.28;;;1.50;99.90;;;;;;7593753;19;20050;-75
2023/03/15 04:36:22;;;;;;;9.35;4.30;;;1.50;99.90;;;;;;7582342;19;21039;-75
2023/03/15 04:39:20;;;;;;;7.80;4.00;;;1.40;99.90;;;;;;7598909;19;20671;-75
2023/03/15 04:42:01;;;;;;;8.68;3.70;;;1.40;99.90;;;;;;7601231;19;20015;-75
2023/03/15 04:44:43;;;;;;;6.50;3.35;;;1.40;99.90;;;;;;7585441;19;20021;-75
2023/03/15 04:47:47;;;;;;;;;;;1.40;99.90;;;;;;7579038;19;20562;-75
2023/03/15 04:50:44;;;;;;;8.52;4.55;;;1.30;99.90;;;;;;7589391;19;19926;-75
2023/03/15 04:53:25;;;;;;;5.60;3.47;;;1.40;99.90;;;;;;7579400;19;20301;-75
2023/03/15 04:56:08;;;;;;;7.28;3.63;;;1.40;99.90;;;;;;7588739;19;20019;-74
2023/03/15 04:59:16;;;;;;;11.18;3.88;;;1.40;99.90;;;;;;7586660;19;20027;-75
2023/03/15 05:02:16;;;;;;;6.07;3.78;;;1.30;99.90;;;;;;7594522;19;21138;-74
2023/03/15 05:05:24;;;;;;;10.77;4.00;;;1.20;99.90;;;;;;7593430;19;20023;-74
2023/03/15 05:08:04;;;;;;;10.57;4.93;;;1.40;99.90;;;;;;7605658;19;20960;-74
2023/03/15 05:11:05;;;;;;;17.40;4.55;;;1.40;99.90;;;;;;7584242;19;20270;-75
2023/03/15 05:13:52;;;;;;;10.45;5.03;;;1.40;99.90;;;;;;7584268;19;20471;-74
2023/03/15 05:16:54;;;;;;;11.88;5.40;;;1.30;99.90;;;;;;7599186;19;21378;-74
2023/03/15 05:19:44;;;;;;;14.95;5.57;;;1.30;99.90;;;;;;7596008;19;20022;-75
2023/03/15 05:22:36;;;;;;;13.15;5.05;;;1.30;99.90;;;;;;7605129;19;20985;-74
2023/03/15 05:25:14;;;;;;;10.23;4.65;;;1.20;99.90;;;;;;7607570;19;20015;-75
2023/03/15 05:28:05;;;;;;;12.55;5.05;;;1.20;99.90;;;;;;7577704;19;21291;-74
2023/03/15 05:30:45;;;;;;;14.23;6.00;;;1.00;99.90;;;;;;7573828;19;21945;-73
2023/03/15 05:33:32;;;;;;;14.57;6.03;;;1.10;99.90;;;;;;7544887;19;20114;-76
2023/03/15 05:36:33;;;;;;;19.45;6.25;;;1.00;99.90;;;;;;7558544;19;20144;-76
2023/03/15 05:39:18;;;;;;;18.60;5.55;;;1.10;99.90;;;;;;7573723;19;20019;-76
2023/03/15 05:42:07;;;;;;;15.50;6.28;;;1.20;99.90;;;;;;7583388;19;20123;-75
2023/03/15 05:45:17;;;;;;;17.65;5.85;;;1.10;99.90;;;;;;7576097;19;20022;-75
2023/03/15 05:47:59;;;;;;;17.88;5.32;;;1.10;99.90;;;;;;7564577;19;20039;-76
2023/03/15 05:50:57;;;;;;;13.85;5.53;;;1.10;99.90;;;;;;7576695;19;20586;-75
2023/03/15 05:53:47;;;;;;;23.52;5.40;;;1.20;99.90;;;;;;7528782;19;20014;-76
2023/03/15 05:56:33;;;;;;;16.80;5.60;;;1.10;99.90;;;;;;7562376;19;20155;-76
2023/03/15 05:59:22;;;;;;;12.77;6.25;;;1.10;99.90;;;;;;7559158;19;20681;-76
2023/03/15 06:02:11;;;;;;;11.70;5.55;;;1.20;99.90;;;;;;7561455;19;20509;-77
2023/03/15 06:04:51;;;;;;;13.60;5.88;;;1.10;99.90;;;;;;7569160;19;20053;-74
2023/03/15 06:07:27;;;;;;;15.85;5.78;;;1.10;99.90;;;;;;7559629;19;20090;-75
2023/03/15 06:09:59;;;;;;;15.40;6.03;;;1.10;99.90;;;;;;7503061;19;20312;-74
2023/03/15 06:12:31;;;;;;;15.80;6.25;;;1.10;99.90;;;;;;7521370;19;20456;-78
2023/03/15 06:15:05;;;;;;;15.65;6.28;;;1.30;99.90;;;;;;7519704;19;20037;-77
2023/03/15 06:17:38;;;;;;;12.45;5.97;;;1.20;99.90;;;;;;7552745;19;20439;-77
2023/03/15 06:20:11;;;;;;;17.50;6.72;;;1.20;99.90;;;;;;7554927;19;22321;-77
2023/03/15 06:22:44;;;;;;;9.90;4.40;;;1.30;99.90;;;;;;7538361;19;20037;-78
2023/03/15 06:25:30;;;;;;;15.10;5.43;;;1.30;99.90;;;;;;7564039;19;20022;-78
2023/03/15 06:28:02;;;;;;;12.68;5.07;;;1.30;99.90;;;;;;7520378;19;20274;-75
2023/03/15 06:30:35;;;;;;;22.38;5.18;;;1.40;99.90;;;;;;7535880;19;20041;-76
2023/03/15 06:33:08;;;;;;;19.15;6.13;;;1.40;99.90;;;;;;7577188;19;20018;-75
2023/03/15 06:35:41;;;;;;;12.13;5.37;;;1.40;99.90;;;;;;7551466;19;20018;-75
2023/03/15 06:38:14;;;;;;;18.80;5.83;;;1.30;99.90;;;;;;7587451;19;20022;-74
2023/03/15 06:40:46;;;;;;;13.68;5.35;;;1.30;99.90;;;;;;7594919;19;20023;-74
2023/03/15 06:43:18;;;;;;;21.10;7.13;;;1.30;99.90;;;;;;7595114;19;20980;-75
2023/03/15 06:45:52;;;;;;;16.47;6.33;;;1.30;99.90;;;;;;7578683;19;20052;-75
2023/03/15 06:48:26;;;;;;;15.68;5.75;;;1.30;99.90;;;;;;7572472;19;20106;-75
2023/03/15 06:50:58;;;;;;;13.15;5.90;;;1.40;99.90;;;;;;7578727;19;20010;-75
2023/03/15 06:53:31;;;;;;;18.38;6.82;;;1.40;99.90;;;;;;7576274;19;20019;-75
2023/03/15 06:56:03;;;;;;;18.88;6.07;;;1.40;99.90;;;;;;7597596;19;20936;-77
2023/03/15 06:58:35;;;;;;;13.07;6.38;;;1.40;99.90;;;;;;7589852;19;20014;-75
2023/03/15 07:01:12;;;;;;;16.92;7.13;;;1.60;99.90;;;;;;7574014;19;21446;-75
2023/03/15 07:03:44;;;;;;;19.35;7.43;;;1.60;99.90;;;;;;7580818;19;20054;-75
2023/03/15 07:06:17;;;;;;;14.15;6.80;;;1.60;99.90;;;;;;7576293;19;20094;-76
2023/03/15 07:08:49;;;;;;;19.75;7.30;;;1.60;99.90;;;;;;7583775;19;20033;-75
2023/03/15 07:11:21;;;;;;;17.10;7.38;;;1.60;99.90;;;;;;7586803;19;20015;-75
2023/03/15 07:13:53;;;;;;;21.13;7.67;;;1.70;99.90;;;;;;7593598;19;20010;-75
2023/03/15 07:16:26;;;;;;;21.48;7.57;;;1.80;99.90;;;;;;7568430;19;20036;-75
2023/03/15 07:18:59;;;;;;;23.23;8.55;;;1.70;99.90;;;;;;7575661;19;21204;-76
2023/03/15 07:21:31;;;;;;;21.90;9.05;;;1.80;99.90;;;;;;7574363;19;24816;-75
2023/03/15 07:24:04;;;;;;;20.95;8.38;;;1.70;99.90;;;;;;7565965;19;20010;-76
2023/03/15 07:26:36;;;;;;;20.52;8.73;;;1.70;99.90;;;;;;7576294;19;20010;-75
2023/03/15 07:29:08;;;;;;;18.40;8.25;;;1.80;99.90;;;;;;7585453;19;20011;-75
2023/03/15 07:31:41;;;;;;;22.38;9.05;;;1.80;99.90;;;;;;7584763;19;20622;-75
2023/03/15 07:34:13;;;;;;;18.60;8.88;;;1.80;99.90;;;;;;7595125;19;20767;-76
2023/03/15 07:36:45;;;;;;;21.27;8.98;;;1.90;99.90;;;;;;7591186;19;20007;-75
2023/03/15 07:39:17;;;;;;;19.52;8.70;;;1.90;99.90;;;;;;7597058;19;20018;-75
2023/03/15 07:41:52;;;;;;;17.85;8.93;;;2.00;99.90;;;;;;7584851;19;20301;-75
2023/03/15 07:44:28;;;;;;;18.33;8.40;;;2.10;99.90;;;;;;7575848;19;20022;-76
2023/03/15 07:47:00;;;;;;;18.48;8.70;;;2.10;99.90;;;;;;7600645;19;20022;-75
2023/03/15 07:49:33;;;;;;;17.27;7.82;;;2.20;99.90;;;;;;7573779;19;20010;-76
2023/03/15 07:52:05;;;;;;;19.17;8.77;;;2.30;99.90;;;;;;7588077;19;20022;-76
2023/03/15 07:54:38;;;;;;;23.25;9.05;;;2.30;99.90;;;;;;7579814;19;20019;-75
2023/03/15 07:57:10;;;;;;;22.05;8.82;;;2.40;99.90;;;;;;7586122;19;20010;-75
2023/03/15 07:59:43;;;;;;;22.15;8.55;;;2.50;99.90;;;;;;7601176;19;20014;-76
2023/03/15 08:02:15;;;;;;;22.77;9.30;;;2.60;99.90;;;;;;7601412;19;20606;-75
2023/03/15 08:04:49;;;;;;;18.05;9.77;;;2.60;99.90;;;;;;7612930;19;20014;-76
2023/03/15 08:07:21;;;;;;;17.42;8.77;;;2.50;99.90;;;;;;7613187;19;20011;-76
2023/03/15 08:09:56;;;;;;;20.85;8.55;;;2.60;99.90;;;;;;7615188;19;20036;-75
2023/03/15 08:12:29;;;;;;;21.30;8.88;;;2.70;99.90;;;;;;7610084;19;20059;-75
2023/03/15 08:15:02;;;;;;;21.15;8.60;;;2.80;99.90;;;;;;7603876;19;20357;-75
2023/03/15 08:17:34;;;;;;;15.77;8.32;;;2.80;99.90;;;;;;7599346;19;20018;-75
2023/03/15 08:20:13;;;;;;;28.85;9.45;;;2.80;99.90;;;;;;7619977;19;20014;-75
2023/03/15 08:22:47;;;;;;;26.63;9.50;;;2.80;99.90;;;;;;7637343;19;20022;-75
2023/03/15 08:25:22;;;;;;;21.63;9.82;;;2.90;99.90;;;;;;7613760;19;21096;-75
2023/03/15 08:27:55;;;;;;;18.08;8.27;;;2.90;99.90;;;;;;7609572;19;20014;-75
2023/03/15 08:30:27;;;;;;;16.45;8.88;;;2.80;99.90;;;;;;7602463;19;22087;-76
2023/03/15 08:32:59;;;;;;;19.23;8.10;;;3.00;99.90;;;;;;7602681;19;20543;-75
2023/03/15 08:35:33;;;;;;;16.17;7.32;;;3.00;99.90;;;;;;7579301;19;21726;-75
2023/03/15 08:38:06;;;;;;;22.90;9.35;;;3.10;99.90;;;;;;7595693;19;20010;-74
2023/03/15 08:40:39;;;;;;;18.02;8.18;;;3.30;99.90;;;;;;7598764;19;20020;-75
2023/03/15 08:43:11;;;;;;;16.08;7.78;;;3.30;99.90;;;;;;7590298;19;20921;-75
2023/03/15 08:45:44;;;;;;;19.48;9.15;;;3.40;99.90;;;;;;7560935;19;21403;-74
2023/03/15 08:48:31;;;;;;;15.77;7.45;;;3.60;99.90;;;;;;7557391;19;20010;-74
2023/03/15 08:51:05;;;;;;;13.45;6.38;;;3.60;99.90;;;;;;7579509;19;20006;-75
2023/03/15 08:53:38;;;;;;;19.83;6.57;;;3.70;99.90;;;;;;7575328;19;20061;-74
2023/03/15 08:56:10;;;;;;;17.23;7.05;;;3.60;99.90;;;;;;7545485;19;21212;-75
2023/03/15 08:58:43;;;;;;;16.67;7.50;;;3.50;99.90;;;;;;7527255;19;20026;-73
2023/03/15 09:01:15;;;;;;;15.10;7.75;;;3.40;99.90;;;;;;7550061;19;20811;-74
2023/03/15 09:03:49;;;;;;;16.25;6.13;;;3.50;99.90;;;;;;7546336;19;20135;-74
2023/03/15 09:06:21;;;;;;;16.00;5.93;;;3.70;99.90;;;;;;7592934;19;20077;-73
2023/03/15 09:08:54;;;;;;;9.90;4.85;;;3.80;99.90;;;;;;7568838;19;20085;-74
2023/03/15 09:11:26;;;;;;;16.10;6.60;;;3.80;99.90;;;;;;7561019;19;20023;-73
2023/03/15 09:13:59;;;;;;;10.95;5.53;;;3.80;99.90;;;;;;7557388;19;20017;-74
2023/03/15 09:16:31;;;;;;;14.23;6.93;;;4.00;99.90;;;;;;7570726;19;20014;-73
2023/03/15 09:19:04;;;;;;;14.57;5.25;;;4.00;99.90;;;;;;7592667;19;20023;-74
2023/03/15 09:21:36;;;;;;;13.03;5.97;;;4.00;99.90;;;;;;7588266;19;20499;-73
2023/03/15 09:24:08;;;;;;;11.07;5.97;;;3.90;99.90;;;;;;7586318;19;20029;-73
2023/03/15 09:26:40;;;;;;;17.95;6.55;;;3.80;99.90;;;;;;7581163;19;20050;-73
2023/03/15 09:29:12;;;;;;;13.07;6.57;;;3.90;99.90;;;;;;7585027;19;20010;-73
2023/03/15 09:31:45;;;;;;;12.73;6.85;;;3.90;99.90;;;;;;7578919;19;20010;-72
2023/03/15 09:34:17;;;;;;;17.83;7.43;;;4.10;99.90;;;;;;7573407;19;20050;-73
2023/03/15 09:36:51;;;;;;;15.60;7.75;;;4.10;99.90;;;;;;7561078;19;20504;-72
2023/03/15 09:39:24;;;;;;;12.73;6.68;;;4.00;99.80;;;;;;7550693;19;20022;-71
2023/03/15 09:41:59;;;;;;;15.23;7.13;;;4.20;99.90;;;;;;7529228;19;20766;-72
2023/03/15 09:44:57;;;;;;;17.33;6.78;;;4.20;99.90;;;;;;7596522;19;20015;-72
2023/03/15 09:47:59;;;;;;;15.38;6.53;;;4.40;99.90;;;;;;7587119;19;20023;-72
2023/03/15 09:50:48;;;;;;;18.20;7.28;;;4.40;99.90;;;;;;7586583;19;20029;-72
2023/03/15 09:53:32;;;;;;;9.63;5.47;;;4.40;99.90;;;;;;7557975;19;20376;-72
2023/03/15 09:56:35;;;;;;;13.13;6.50;;;4.50;99.90;;;;;;7573757;19;20021;-72
2023/03/15 09:59:09;;;;;;;13.55;5.82;;;4.40;94.80;;;;;;7560895;19;20037;-72
2023/03/15 10:01:42;;;;;;;15.43;6.15;;;4.50;97.00;;;;;;7575023;19;20040;-74
2023/03/15 10:04:28;;;;;;;16.02;6.43;;;4.50;99.60;;;;;;7573010;19;20015;-73
2023/03/15 10:07:02;;;;;;;16.38;7.88;;;4.50;97.00;;;;;;7578425;19;21738;-73
2023/03/15 10:09:34;;;;;;;12.32;6.32;;;4.60;95.60;;;;;;7586664;19;20057;-73
2023/03/15 10:12:40;;;;;;;12.02;5.38;;;4.40;93.90;;;;;;7599159;19;20053;-73
2023/03/15 10:15:20;;;;;;;13.48;5.43;;;4.40;93.20;;;;;;7608210;19;20018;-73
2023/03/15 10:17:58;;;;;;;11.90;5.35;;;4.50;95.70;;;;;;7601801;19;20058;-73
2023/03/15 10:20:44;;;;;;;14.20;4.80;;;4.80;95.80;;;;;;7588255;19;20015;-74
2023/03/15 10:23:28;;;;;;;15.70;4.85;;;4.90;91.50;;;;;;7593077;19;20025;-74
2023/03/15 10:26:05;;;;;;;14.85;6.22;;;5.20;92.70;;;;;;7613614;19;20662;-74
2023/03/15 10:28:38;;;;;;;13.23;5.28;;;5.20;91.60;;;;;;7606952;19;20018;-74
2023/03/15 10:31:17;;;;;;;10.60;4.90;;;5.40;91.40;;;;;;7603337;19;20022;-74
2023/03/15 10:34:00;;;;;;;12.73;4.28;;;5.30;89.70;;;;;;7608460;19;20026;-73
2023/03/15 10:36:32;;;;;;;11.70;4.90;;;5.40;87.40;;;;;;7571252;19;20022;-74
2023/03/15 10:39:04;;;;;;;9.65;4.57;;;5.40;86.10;;;;;;7589677;19;20098;-74
2023/03/15 10:41:38;;;;;;;9.10;4.35;;;5.60;84.20;;;;;;7599572;19;20102;-74
2023/03/15 10:44:23;;;;;;;8.85;4.45;;;5.60;80.90;;;;;;7613880;19;20022;-74
2023/03/15 10:47:05;;;;;;;15.10;4.03;;;5.70;85.30;;;;;;7602568;19;20043;-73
2023/03/15 10:49:58;;;;;;;11.05;3.80;;;5.60;81.80;;;;;;7608638;19;20026;-74
2023/03/15 10:52:35;;;;;;;10.45;3.72;;;5.40;81.50;;;;;;7596575;19;20018;-74
2023/03/15 10:55:24;;;;;;;14.85;4.00;;;5.40;80.40;;;;;;7608885;19;20086;-74
2023/03/15 10:58:01;;;;;;;9.70;3.88;;;5.60;78.40;;;;;;7575181;19;20661;-73
2023/03/15 11:00:35;;;;;;;13.60;4.15;;;5.70;80.30;;;;;;7594270;19;20011;-73
2023/03/15 11:03:20;;;;;;;11.68;3.88;;;5.60;77.10;;;;;;7571446;19;20056;-74
2023/03/15 11:05:55;;;;;;;11.75;3.95;;;5.70;81.50;;;;;;7554405;19;20018;-73
2023/03/15 11:08:40;;;;;;;9.38;3.70;;;5.70;77.30;;;;;;7572224;19;21099;-74
2023/03/15 11:11:12;;;;;;;9.95;2.97;;;5.80;77.20;;;;;;7594904;19;21042;-74
2023/03/15 11:13:59;;;;;;;12.35;4.32;;;5.80;77.40;;;;;;7580620;19;20093;-74
2023/03/15 11:16:36;;;;;;;15.13;3.53;;;5.90;75.90;;;;;;7600971;19;20029;-74
2023/03/15 11:19:16;;;;;;;9.23;3.60;;;5.90;75.90;;;;;;7584849;19;20050;-74
2023/03/15 11:21:50;;;;;;;8.10;3.28;;;5.90;77.70;;;;;;7593476;19;20645;-74
2023/03/15 11:24:29;;;;;;;7.82;2.72;;;5.80;73.50;;;;;;7591269;19;20010;-74
2023/03/15 11:27:09;;;;;;;7.97;3.13;;;5.70;73.00;;;;;;7576349;19;20101;-74
2023/03/15 11:29:51;;;;;;;4.85;2.67;;;6.00;72.40;;;;;;7592044;19;20039;-73
2023/03/15 11:32:26;;;;;;;7.78;3.15;;;6.10;73.00;;;;;;7574084;19;20018;-74
2023/03/15 11:35:06;;;;;;;11.05;3.00;;;6.00;72.30;;;;;;7591116;19;20018;-73
2023/03/15 11:37:51;;;;;;;10.20;3.22;;;5.90;72.80;;;;;;7575909;19;20015;-74
2023/03/15 11:40:37;;;;;;;7.03;2.85;;;6.00;71.30;;;;;;7581606;19;20015;-74
2023/03/15 11:43:15;;;;;;;8.85;2.80;;;6.60;68.30;;;;;;7598691;19;20566;-73
2023/03/15 11:45:56;;;;;;;5.13;2.58;;;6.60;66.00;;;;;;7591332;19;21728;-74
2023/03/15 11:49:12;;;;;;;7.90;2.45;;;7.40;67.10;;;;;;7592767;19;20030;-73
2023/03/15 11:51:44;;;;;;;5.65;2.40;;;8.60;59.50;;;;;;7595161;19;20715;-74
2023/03/15 11:54:19;;;;;;;5.32;2.00;;;9.50;57.10;;;;;;7597565;19;20018;-74
2023/03/15 11:57:02;;;;;;;5.80;2.40;;;9.80;58.40;;;;;;7617673;19;20057;-74
2023/03/15 11:59:44;;;;;;;9.50;3.47;;;9.60;60.70;;;;;;7642074;19;20007;-74
2023/03/15 12:02:22;;;;;;;14.60;4.15;;;9.00;59.40;;;;;;7628941;19;20035;-75
2023/03/15 12:05:00;;;;;;;12.90;3.78;;;8.50;58.10;;;;;;7613971;19;20122;-75
2023/03/15 12:07:59;;;;;;;14.25;3.95;;;8.00;59.10;;;;;;7608901;19;20018;-73
2023/03/15 12:10:33;;;;;;;6.05;2.28;;;7.40;57.20;;;;;;7594346;19;20138;-72
2023/03/15 12:13:16;;;;;;;4.18;2.08;;;8.00;58.60;;;;;;7588815;19;20018;-73
2023/03/15 12:15:50;;;;;;;3.53;1.92;;;8.60;55.70;;;;;;7589572;19;20855;-73
2023/03/15 12:18:45;;;;;;;;;;;9.40;56.40;;;;;;7588550;19;20571;-74
2023/03/15 12:21:20;;;;;;;4.45;1.73;;;9.40;54.20;;;;;;7595305;19;19915;-73
2023/03/15 12:24:04;;;;;;;8.35;2.00;;;8.40;52.40;;;;;;7592807;19;21427;-74
2023/03/15 12:27:03;;;;;;;4.88;2.30;;;8.30;55.50;;;;;;7603285;19;20021;-74
2023/03/15 12:29:37;;;;;;;3.85;1.70;;;8.30;55.80;;;;;;7582736;19;20028;-72
2023/03/15 12:32:15;;;;;;;6.18;2.08;;;8.90;55.20;;;;;;7571752;19;20022;-73
2023/03/15 12:34:52;;;;;;;6.40;1.88;;;8.30;54.50;;;;;;7586716;19;20041;-73
2023/03/15 12:37:41;;;;;;;4.03;1.63;;;8.00;56.90;;;;;;7610495;19;20050;-73
2023/03/15 12:40:19;;;;;;;3.78;1.63;;;7.70;56.90;;;;;;7582635;19;20577;-73
2023/03/15 12:42:56;;;;;;;3.88;1.67;;;7.80;58.30;;;;;;7593944;19;20311;-76
2023/03/15 12:45:34;;;;;;;3.90;1.90;;;7.90;59.70;;;;;;7604398;19;20353;-74
2023/03/15 12:48:11;;;;;;;7.57;2.05;;;8.70;58.00;;;;;;7596012;19;20085;-74
2023/03/15 12:50:44;;;;;;;4.80;1.80;;;10.50;56.20;;;;;;7593451;19;20017;-74
2023/03/15 12:53:35;;;;;;;4.25;2.10;;;10.90;51.20;;;;;;7587045;19;20018;-74
2023/03/15 12:56:34;;;;;;;5.95;1.90;;;10.40;51.70;;;;;;7600426;19;20036;-74
2023/03/15 12:59:28;;;;;;;7.07;2.33;;;10.10;52.20;;;;;;7567718;19;20545;-74
2023/03/15 13:02:02;;;;;;;5.33;1.87;;;11.10;50.40;;;;;;7558800;19;20777;-74
2023/03/15 13:04:34;;;;;;;4.38;2.40;;;11.00;50.80;;;;;;7556025;19;21218;-73
2023/03/15 13:07:34;;;;;;;5.80;2.10;;;10.00;51.30;;;;;;7572579;19;20025;-75
2023/03/15 13:10:52;;;;;;;10.00;3.73;;;9.50;54.90;;;;;;7565977;19;20035;-74
2023/03/15 13:13:32;;;;;;;13.68;5.55;;;9.10;53.90;;;;;;7590878;19;20010;-74
2023/03/15 13:16:23;;;;;;;12.70;4.47;;;8.70;55.00;;;;;;7596024;19;20015;-74
2023/03/15 13:19:10;;;;;;;8.43;2.17;;;8.20;55.90;;;;;;7610404;19;20022;-74
2023/03/15 13:21:51;;;;;;;2.58;1.45;;;7.90;56.50;;;;;;7605774;19;20015;-75
2023/03/15 13:24:42;;;;;;;4.45;1.50;;;7.80;56.30;;;;;;7605581;19;20030;-74
2023/03/15 13:27:36;;;;;;;5.10;1.77;;;7.70;57.30;;;;;;7608242;19;20010;-74
2023/03/15 13:30:47;;;;;;;4.13;1.80;;;7.80;58.70;;;;;;7613678;19;20231;-75
2023/03/15 13:33:27;;;;;;;2.35;1.30;;;7.80;59.00;;;;;;7598974;19;20074;-76
2023/03/15 13:36:00;;;;;;;7.32;3.08;;;7.60;58.80;;;;;;7604219;19;20575;-76
2023/03/15 13:38:42;;;;;;;4.63;2.10;;;7.30;58.50;;;;;;7593861;19;20943;-75
2023/03/15 13:41:29;;;;;;;2.75;2.00;;;7.10;57.40;;;;;;7600703;19;20062;-74
2023/03/15 13:44:12;;;;;;;7.63;2.53;;;6.70;58.60;;;;;;7607463;19;20026;-75
2023/03/15 13:46:48;;;;;;;3.10;1.63;;;6.70;60.10;;;;;;7610193;19;20022;-74
2023/03/15 13:49:20;;;;;;;3.78;1.42;;;6.80;61.80;;;;;;7599225;19;20059;-75
2023/03/15 13:51:53;;;;;;;8.13;3.25;;;7.10;63.00;;;;;;7598649;19;21155;-75